Sao Nicolau — EA3912 — position and weather

sailwx.info

Track history (hours):
 
Tides and Currents Weather Stations Pressure Air Temp Water Temp Dewpoint Dewpoint Depression Visibility Wind Speed Wind Dir Waves Ship Positions

Sao Nicolau

Last reported at 2017-Nov-18 14:13 UTC. Time now 2017-Nov-20 17:21 UTC.
Position N 38°42' W 009°25'.

Length 15 m.

Type: Sailing vessel. MMSI: 224130680.

Date/timePositionNaut miles runAvg speedWind from/ knotsBaromVisibWave heightAir tempDewpointWater temp
2017-Nov-18 14:13N 38°42' W 009°25'0 0.6
2017-Nov-18 13:59N 38°41' W 009°25'2 3.2
2017-Nov-18 13:29N 38°41' W 009°27'3 5.8
2017-Nov-18 12:59N 38°39' W 009°30'2 5.2
2017-Nov-18 12:30N 38°40' W 009°27'1 2.3
2017-Nov-18 12:00N 38°41' W 009°26'1 1.2
2017-Nov-18 11:25N 38°41' W 009°25'1 1.0
2017-Nov-18 10:49N 38°42' W 009°25'0 0.0
2017-Nov-18 09:46N 38°42' W 009°25'  
2017-Nov-10 13:14N 38°42' W 009°25'0 1.5
2017-Nov-10 12:58N 38°42' W 009°25'1 3.0
2017-Nov-10 12:28N 38°41' W 009°26'1 2.9
2017-Nov-10 12:00N 38°41' W 009°28'2 3.0
2017-Nov-10 11:29N 38°41' W 009°26'  
Track history (hours):
 
Tides and Currents Weather Stations Pressure Air Temp Water Temp Dewpoint Dewpoint Depression Visibility Wind Speed Wind Dir Waves Ship Positions

Sao Nicolau

Last reported at 2017-Nov-18 14:13 UTC. Time now 2017-Nov-20 17:21 UTC.
Position N 38°42' W 009°25'.

Length 15 m.

Type: Sailing vessel. MMSI: 224130680.

Date/timePositionNaut miles runAvg speedWind from/ knotsBaromVisibWave heightAir tempDewpointWater temp
2017-Nov-18 14:13N 38°42' W 009°25'0 0.6
2017-Nov-18 13:59N 38°41' W 009°25'2 3.2
2017-Nov-18 13:29N 38°41' W 009°27'3 5.8
2017-Nov-18 12:59N 38°39' W 009°30'2 5.2
2017-Nov-18 12:30N 38°40' W 009°27'1 2.3
2017-Nov-18 12:00N 38°41' W 009°26'1 1.2
2017-Nov-18 11:25N 38°41' W 009°25'1 1.0
2017-Nov-18 10:49N 38°42' W 009°25'0 0.0
2017-Nov-18 09:46N 38°42' W 009°25'  
2017-Nov-10 13:14N 38°42' W 009°25'0 1.5
2017-Nov-10 12:58N 38°42' W 009°25'1 3.0
2017-Nov-10 12:28N 38°41' W 009°26'1 2.9
2017-Nov-10 12:00N 38°41' W 009°28'2 3.0
2017-Nov-10 11:29N 38°41' W 009°26'  

Dump ship's entire track history